sensor_id;sensor_type;location;lat;lon;timestamp;temperature;humidity
28837;DHT22;50669;50.982;11.022;2022-07-18T00:01:12;17.90;68.80
28837;DHT22;50669;50.982;11.022;2022-07-18T00:03:37;17.90;68.70
28837;DHT22;50669;50.982;11.022;2022-07-18T00:06:05;17.80;68.90
28837;DHT22;50669;50.982;11.022;2022-07-18T00:08:31;17.80;69.20
28837;DHT22;50669;50.982;11.022;2022-07-18T00:10:56;17.70;69.10
28837;DHT22;50669;50.982;11.022;2022-07-18T00:13:22;17.70;69.00
28837;DHT22;50669;50.982;11.022;2022-07-18T00:15:48;17.70;69.20
28837;DHT22;50669;50.982;11.022;2022-07-18T00:18:16;17.60;69.90
28837;DHT22;50669;50.982;11.022;2022-07-18T00:20:44;17.40;70.20
28837;DHT22;50669;50.982;11.022;2022-07-18T00:23:09;17.40;70.00
28837;DHT22;50669;50.982;11.022;2022-07-18T00:25:35;17.30;69.80
28837;DHT22;50669;50.982;11.022;2022-07-18T00:28:03;17.30;69.90
28837;DHT22;50669;50.982;11.022;2022-07-18T00:30:29;17.30;70.00
28837;DHT22;50669;50.982;11.022;2022-07-18T00:32:56;17.30;70.30
28837;DHT22;50669;50.982;11.022;2022-07-18T00:35:22;17.20;70.20
28837;DHT22;50669;50.982;11.022;2022-07-18T00:37:48;17.20;69.90
28837;DHT22;50669;50.982;11.022;2022-07-18T00:40:13;17.20;69.90
28837;DHT22;50669;50.982;11.022;2022-07-18T00:42:43;17.20;70.10
28837;DHT22;50669;50.982;11.022;2022-07-18T00:45:10;17.20;70.30
28837;DHT22;50669;50.982;11.022;2022-07-18T00:47:38;17.20;70.20
28837;DHT22;50669;50.982;11.022;2022-07-18T00:50:04;17.10;70.30
28837;DHT22;50669;50.982;11.022;2022-07-18T00:52:35;17.10;71.30
28837;DHT22;50669;50.982;11.022;2022-07-18T00:55:03;17.00;71.20
28837;DHT22;50669;50.982;11.022;2022-07-18T00:57:32;16.90;70.50
28837;DHT22;50669;50.982;11.022;2022-07-18T00:59:57;16.90;70.10
28837;DHT22;50669;50.982;11.022;2022-07-18T01:02:44;16.90;71.10
28837;DHT22;50669;50.982;11.022;2022-07-18T01:05:10;16.80;70.10
28837;DHT22;50669;50.982;11.022;2022-07-18T01:07:36;16.80;69.40
28837;DHT22;50669;50.982;11.022;2022-07-18T01:10:04;16.80;69.00
28837;DHT22;50669;50.982;11.022;2022-07-18T01:12:29;16.80;69.40
28837;DHT22;50669;50.982;11.022;2022-07-18T01:15:00;16.80;69.30
28837;DHT22;50669;50.982;11.022;2022-07-18T01:17:28;16.70;69.40
28837;DHT22;50669;50.982;11.022;2022-07-18T01:19:54;16.50;69.30
28837;DHT22;50669;50.982;11.022;2022-07-18T01:22:22;16.50;69.40
28837;DHT22;50669;50.982;11.022;2022-07-18T01:24:48;16.40;69.50
28837;DHT22;50669;50.982;11.022;2022-07-18T01:27:18;16.20;69.70
28837;DHT22;50669;50.982;11.022;2022-07-18T01:29:48;16.10;70.10
28837;DHT22;50669;50.982;11.022;2022-07-18T01:32:17;16.00;70.40
28837;DHT22;50669;50.982;11.022;2022-07-18T01:34:44;15.90;70.50
28837;DHT22;50669;50.982;11.022;2022-07-18T01:37:13;15.90;70.70
28837;DHT22;50669;50.982;11.022;2022-07-18T01:39:40;15.90;71.00
28837;DHT22;50669;50.982;11.022;2022-07-18T01:42:08;15.90;70.90
28837;DHT22;50669;50.982;11.022;2022-07-18T01:44:35;15.90;70.60
28837;DHT22;50669;50.982;11.022;2022-07-18T01:47:04;16.00;71.40
28837;DHT22;50669;50.982;11.022;2022-07-18T01:49:33;16.00;70.10
28837;DHT22;50669;50.982;11.022;2022-07-18T01:51:59;16.10;70.10
28837;DHT22;50669;50.982;11.022;2022-07-18T01:54:29;16.10;70.20
28837;DHT22;50669;50.982;11.022;2022-07-18T01:56:59;16.10;70.20
28837;DHT22;50669;50.982;11.022;2022-07-18T01:59:25;16.10;70.20
28837;DHT22;50669;50.982;11.022;2022-07-18T02:01:51;16.10;70.50
28837;DHT22;50669;50.982;11.022;2022-07-18T02:04:17;16.10;70.10
28837;DHT22;50669;50.982;11.022;2022-07-18T02:06:42;16.10;70.90
28837;DHT22;50669;50.982;11.022;2022-07-18T02:09:09;16.10;71.50
28837;DHT22;50669;50.982;11.022;2022-07-18T02:11:35;16.00;71.00
28837;DHT22;50669;50.982;11.022;2022-07-18T02:14:02;16.00;70.80
28837;DHT22;50669;50.982;11.022;2022-07-18T02:16:28;16.00;70.80
28837;DHT22;50669;50.982;11.022;2022-07-18T02:18:57;16.00;71.10
28837;DHT22;50669;50.982;11.022;2022-07-18T02:21:25;15.90;72.20
28837;DHT22;50669;50.982;11.022;2022-07-18T02:23:51;15.70;72.70
28837;DHT22;50669;50.982;11.022;2022-07-18T02:26:17;15.60;73.10
28837;DHT22;50669;50.982;11.022;2022-07-18T02:28:43;15.60;73.40
28837;DHT22;50669;50.982;11.022;2022-07-18T02:31:09;15.50;73.40
28837;DHT22;50669;50.982;11.022;2022-07-18T02:33:34;15.50;73.50
28837;DHT22;50669;50.982;11.022;2022-07-18T02:36:00;15.50;73.00
28837;DHT22;50669;50.982;11.022;2022-07-18T02:38:28;15.50;73.70
28837;DHT22;50669;50.982;11.022;2022-07-18T02:40:56;15.50;74.20
28837;DHT22;50669;50.982;11.022;2022-07-18T02:43:22;15.30;74.90
28837;DHT22;50669;50.982;11.022;2022-07-18T02:45:50;15.30;75.80
28837;DHT22;50669;50.982;11.022;2022-07-18T02:48:15;15.10;76.50
28837;DHT22;50669;50.982;11.022;2022-07-18T02:50:41;15.00;77.10
28837;DHT22;50669;50.982;11.022;2022-07-18T02:53:07;15.00;76.70
28837;DHT22;50669;50.982;11.022;2022-07-18T02:55:32;15.00;76.30
28837;DHT22;50669;50.982;11.022;2022-07-18T02:57:58;15.00;77.20
28837;DHT22;50669;50.982;11.022;2022-07-18T03:00:24;14.90;77.80
28837;DHT22;50669;50.982;11.022;2022-07-18T03:02:49;14.90;77.90
28837;DHT22;50669;50.982;11.022;2022-07-18T03:05:15;14.80;77.70
28837;DHT22;50669;50.982;11.022;2022-07-18T03:07:41;14.80;77.00
28837;DHT22;50669;50.982;11.022;2022-07-18T03:10:09;14.80;77.60
28837;DHT22;50669;50.982;11.022;2022-07-18T03:12:35;14.80;77.70
28837;DHT22;50669;50.982;11.022;2022-07-18T03:15:00;14.80;77.20
28837;DHT22;50669;50.982;11.022;2022-07-18T03:17:28;14.80;77.50
28837;DHT22;50669;50.982;11.022;2022-07-18T03:19:56;14.70;77.10
28837;DHT22;50669;50.982;11.022;2022-07-18T03:22:22;14.80;77.00
28837;DHT22;50669;50.982;11.022;2022-07-18T03:24:50;14.80;77.10
28837;DHT22;50669;50.982;11.022;2022-07-18T03:27:18;14.80;77.30
28837;DHT22;50669;50.982;11.022;2022-07-18T03:29:43;14.80;77.40
28837;DHT22;50669;50.982;11.022;2022-07-18T03:32:09;14.80;76.90
28837;DHT22;50669;50.982;11.022;2022-07-18T03:34:35;14.80;77.10
28837;DHT22;50669;50.982;11.022;2022-07-18T03:37:00;14.80;76.50
28837;DHT22;50669;50.982;11.022;2022-07-18T03:39:26;14.80;76.40
28837;DHT22;50669;50.982;11.022;2022-07-18T03:41:51;14.80;76.50
28837;DHT22;50669;50.982;11.022;2022-07-18T03:44:17;14.80;77.70
28837;DHT22;50669;50.982;11.022;2022-07-18T03:46:43;14.70;78.00
28837;DHT22;50669;50.982;11.022;2022-07-18T03:49:13;14.70;77.70
28837;DHT22;50669;50.982;11.022;2022-07-18T03:51:39;14.80;77.30
28837;DHT22;50669;50.982;11.022;2022-07-18T03:54:10;14.80;76.80
28837;DHT22;50669;50.982;11.022;2022-07-18T03:56:36;14.80;76.30
28837;DHT22;50669;50.982;11.022;2022-07-18T03:59:02;14.90;76.60
28837;DHT22;50669;50.982;11.022;2022-07-18T04:01:28;14.90;76.60
28837;DHT22;50669;50.982;11.022;2022-07-18T04:03:53;14.90;76.50
28837;DHT22;50669;50.982;11.022;2022-07-18T04:06:19;14.90;76.60
28837;DHT22;50669;50.982;11.022;2022-07-18T04:08:45;15.00;76.20
28837;DHT22;50669;50.982;11.022;2022-07-18T04:11:13;15.00;76.00
28837;DHT22;50669;50.982;11.022;2022-07-18T04:13:41;15.10;75.70
28837;DHT22;50669;50.982;11.022;2022-07-18T04:16:09;15.20;75.30
28837;DHT22;50669;50.982;11.022;2022-07-18T04:18:34;15.20;75.10
28837;DHT22;50669;50.982;11.022;2022-07-18T04:21:00;15.20;75.30
28837;DHT22;50669;50.982;11.022;2022-07-18T04:23:26;15.20;75.40
28837;DHT22;50669;50.982;11.022;2022-07-18T04:25:51;15.20;75.50
28837;DHT22;50669;50.982;11.022;2022-07-18T04:28:20;15.30;75.60
28837;DHT22;50669;50.982;11.022;2022-07-18T04:30:45;15.30;75.90
28837;DHT22;50669;50.982;11.022;2022-07-18T04:33:13;15.30;75.60
28837;DHT22;50669;50.982;11.022;2022-07-18T04:35:43;15.40;75.60
28837;DHT22;50669;50.982;11.022;2022-07-18T04:38:10;15.40;75.60
28837;DHT22;50669;50.982;11.022;2022-07-18T04:40:36;15.40;75.70
28837;DHT22;50669;50.982;11.022;2022-07-18T04:43:02;15.40;75.70
28837;DHT22;50669;50.982;11.022;2022-07-18T04:45:28;15.50;75.30
28837;DHT22;50669;50.982;11.022;2022-07-18T04:47:54;15.70;74.80
28837;DHT22;50669;50.982;11.022;2022-07-18T04:50:23;15.80;74.60
28837;DHT22;50669;50.982;11.022;2022-07-18T04:52:49;15.90;74.40
28837;DHT22;50669;50.982;11.022;2022-07-18T04:55:16;15.90;74.30
28837;DHT22;50669;50.982;11.022;2022-07-18T04:57:45;15.90;74.50
28837;DHT22;50669;50.982;11.022;2022-07-18T05:00:14;15.90;74.30
28837;DHT22;50669;50.982;11.022;2022-07-18T05:02:46;15.80;74.60
28837;DHT22;50669;50.982;11.022;2022-07-18T05:05:12;15.70;74.80
28837;DHT22;50669;50.982;11.022;2022-07-18T05:07:39;15.70;74.90
28837;DHT22;50669;50.982;11.022;2022-07-18T05:10:09;15.60;75.00
28837;DHT22;50669;50.982;11.022;2022-07-18T05:12:40;15.60;74.90
28837;DHT22;50669;50.982;11.022;2022-07-18T05:15:07;15.70;74.90
28837;DHT22;50669;50.982;11.022;2022-07-18T05:17:36;15.60;74.80
28837;DHT22;50669;50.982;11.022;2022-07-18T05:20:04;15.70;74.90
28837;DHT22;50669;50.982;11.022;2022-07-18T05:22:32;15.80;74.60
28837;DHT22;50669;50.982;11.022;2022-07-18T05:25:02;15.90;75.00
28837;DHT22;50669;50.982;11.022;2022-07-18T05:27:28;16.10;73.60
28837;DHT22;50669;50.982;11.022;2022-07-18T05:29:54;16.20;73.30
28837;DHT22;50669;50.982;11.022;2022-07-18T05:32:19;16.40;72.80
28837;DHT22;50669;50.982;11.022;2022-07-18T05:34:45;16.30;72.70
28837;DHT22;50669;50.982;11.022;2022-07-18T05:37:13;16.30;72.60
28837;DHT22;50669;50.982;11.022;2022-07-18T05:39:39;16.30;72.50
28837;DHT22;50669;50.982;11.022;2022-07-18T05:42:05;16.30;72.30
28837;DHT22;50669;50.982;11.022;2022-07-18T05:44:32;16.40;72.20
28837;DHT22;50669;50.982;11.022;2022-07-18T05:46:58;16.60;72.00
28837;DHT22;50669;50.982;11.022;2022-07-18T05:49:26;16.70;71.60
28837;DHT22;50669;50.982;11.022;2022-07-18T05:51:54;17.00;71.10
28837;DHT22;50669;50.982;11.022;2022-07-18T05:54:21;17.10;70.90
28837;DHT22;50669;50.982;11.022;2022-07-18T05:56:49;17.20;70.40
28837;DHT22;50669;50.982;11.022;2022-07-18T05:59:15;17.40;70.00
28837;DHT22;50669;50.982;11.022;2022-07-18T06:01:44;17.60;69.70
28837;DHT22;50669;50.982;11.022;2022-07-18T06:04:10;17.60;69.20
28837;DHT22;50669;50.982;11.022;2022-07-18T06:06:38;17.80;69.10
28837;DHT22;50669;50.982;11.022;2022-07-18T06:09:05;17.80;68.80
28837;DHT22;50669;50.982;11.022;2022-07-18T06:11:31;18.00;68.70
28837;DHT22;50669;50.982;11.022;2022-07-18T06:13:57;18.10;68.30
28837;DHT22;50669;50.982;11.022;2022-07-18T06:16:27;18.30;67.90
28837;DHT22;50669;50.982;11.022;2022-07-18T06:18:56;18.40;67.00
28837;DHT22;50669;50.982;11.022;2022-07-18T06:21:22;18.50;66.90
28837;DHT22;50669;50.982;11.022;2022-07-18T06:23:47;18.60;66.30
28837;DHT22;50669;50.982;11.022;2022-07-18T06:26:13;18.60;66.10
28837;DHT22;50669;50.982;11.022;2022-07-18T06:28:41;18.70;65.40
28837;DHT22;50669;50.982;11.022;2022-07-18T06:31:09;18.60;65.30
28837;DHT22;50669;50.982;11.022;2022-07-18T06:33:37;18.60;64.60
28837;DHT22;50669;50.982;11.022;2022-07-18T06:36:03;18.70;65.20
28837;DHT22;50669;50.982;11.022;2022-07-18T06:38:31;18.80;65.70
28837;DHT22;50669;50.982;11.022;2022-07-18T06:40:59;19.00;64.50
28837;DHT22;50669;50.982;11.022;2022-07-18T06:43:24;19.10;64.10
28837;DHT22;50669;50.982;11.022;2022-07-18T06:45:50;19.20;63.70
28837;DHT22;50669;50.982;11.022;2022-07-18T06:48:18;19.20;63.40
28837;DHT22;50669;50.982;11.022;2022-07-18T06:50:44;19.40;63.20
28837;DHT22;50669;50.982;11.022;2022-07-18T06:53:10;19.60;62.60
28837;DHT22;50669;50.982;11.022;2022-07-18T06:55:36;19.80;62.30
28837;DHT22;50669;50.982;11.022;2022-07-18T06:58:04;20.00;62.10
28837;DHT22;50669;50.982;11.022;2022-07-18T07:00:31;20.00;60.70
28837;DHT22;50669;50.982;11.022;2022-07-18T07:02:57;20.00;60.70
28837;DHT22;50669;50.982;11.022;2022-07-18T07:05:23;20.10;60.60
28837;DHT22;50669;50.982;11.022;2022-07-18T07:07:49;20.10;60.00
28837;DHT22;50669;50.982;11.022;2022-07-18T07:10:16;20.10;60.30
28837;DHT22;50669;50.982;11.022;2022-07-18T07:12:44;20.10;59.90
28837;DHT22;50669;50.982;11.022;2022-07-18T07:15:10;20.30;59.80
28837;DHT22;50669;50.982;11.022;2022-07-18T07:17:36;20.50;59.60
28837;DHT22;50669;50.982;11.022;2022-07-18T07:20:04;20.70;59.40
28837;DHT22;50669;50.982;11.022;2022-07-18T07:22:41;20.80;59.50
28837;DHT22;50669;50.982;11.022;2022-07-18T07:25:08;21.10;59.20
28837;DHT22;50669;50.982;11.022;2022-07-18T07:27:34;21.30;58.30
28837;DHT22;50669;50.982;11.022;2022-07-18T07:29:59;21.40;58.30
28837;DHT22;50669;50.982;11.022;2022-07-18T07:32:25;21.50;57.90
28837;DHT22;50669;50.982;11.022;2022-07-18T07:34:51;21.60;57.60
28837;DHT22;50669;50.982;11.022;2022-07-18T07:37:17;21.70;57.10
28837;DHT22;50669;50.982;11.022;2022-07-18T07:39:44;21.80;57.20
28837;DHT22;50669;50.982;11.022;2022-07-18T07:42:15;22.00;56.80
28837;DHT22;50669;50.982;11.022;2022-07-18T07:44:40;22.10;56.30
28837;DHT22;50669;50.982;11.022;2022-07-18T07:47:06;22.00;55.90
28837;DHT22;50669;50.982;11.022;2022-07-18T07:49:31;22.10;56.30
28837;DHT22;50669;50.982;11.022;2022-07-18T07:51:59;22.20;56.50
28837;DHT22;50669;50.982;11.022;2022-07-18T07:54:25;22.40;56.50
28837;DHT22;50669;50.982;11.022;2022-07-18T07:56:50;22.50;56.10
28837;DHT22;50669;50.982;11.022;2022-07-18T07:59:19;22.60;55.80
28837;DHT22;50669;50.982;11.022;2022-07-18T08:01:44;22.60;56.10
28837;DHT22;50669;50.982;11.022;2022-07-18T08:04:10;22.80;56.20
28837;DHT22;50669;50.982;11.022;2022-07-18T08:06:35;22.90;56.40
28837;DHT22;50669;50.982;11.022;2022-07-18T08:09:01;22.90;56.00
28837;DHT22;50669;50.982;11.022;2022-07-18T08:11:27;23.00;56.00
28837;DHT22;50669;50.982;11.022;2022-07-18T08:13:55;23.10;55.80
28837;DHT22;50669;50.982;11.022;2022-07-18T08:16:23;23.10;55.50
28837;DHT22;50669;50.982;11.022;2022-07-18T08:18:48;23.20;55.50
28837;DHT22;50669;50.982;11.022;2022-07-18T08:21:15;23.40;55.70
28837;DHT22;50669;50.982;11.022;2022-07-18T08:23:40;23.40;54.50
28837;DHT22;50669;50.982;11.022;2022-07-18T08:26:07;23.60;54.90
28837;DHT22;50669;50.982;11.022;2022-07-18T08:28:32;23.70;54.70
28837;DHT22;50669;50.982;11.022;2022-07-18T08:30:58;23.70;53.40
28837;DHT22;50669;50.982;11.022;2022-07-18T08:33:26;23.70;52.80
28837;DHT22;50669;50.982;11.022;2022-07-18T08:35:51;23.70;53.00
28837;DHT22;50669;50.982;11.022;2022-07-18T08:38:17;23.80;53.20
28837;DHT22;50669;50.982;11.022;2022-07-18T08:40:46;24.00;53.20
28837;DHT22;50669;50.982;11.022;2022-07-18T08:43:15;24.20;53.30
28837;DHT22;50669;50.982;11.022;2022-07-18T08:45:45;24.30;52.30
28837;DHT22;50669;50.982;11.022;2022-07-18T08:48:15;24.40;52.70
28837;DHT22;50669;50.982;11.022;2022-07-18T08:50:44;24.50;53.00
28837;DHT22;50669;50.982;11.022;2022-07-18T08:53:11;24.80;53.00
28837;DHT22;50669;50.982;11.022;2022-07-18T08:55:38;25.10;52.30
28837;DHT22;50669;50.982;11.022;2022-07-18T08:58:05;25.20;51.50
28837;DHT22;50669;50.982;11.022;2022-07-18T09:00:34;25.30;51.00
28837;DHT22;50669;50.982;11.022;2022-07-18T09:03:03;25.30;50.90
28837;DHT22;50669;50.982;11.022;2022-07-18T09:05:30;25.40;50.40
28837;DHT22;50669;50.982;11.022;2022-07-18T09:08:11;25.50;50.30
28837;DHT22;50669;50.982;11.022;2022-07-18T09:10:48;25.50;49.00
28837;DHT22;50669;50.982;11.022;2022-07-18T09:13:16;25.40;48.80
28837;DHT22;50669;50.982;11.022;2022-07-18T09:16:00;25.40;48.60
28837;DHT22;50669;50.982;11.022;2022-07-18T09:18:29;25.50;48.10
28837;DHT22;50669;50.982;11.022;2022-07-18T09:21:03;25.60;48.70
28837;DHT22;50669;50.982;11.022;2022-07-18T09:23:33;26.00;48.60
28837;DHT22;50669;50.982;11.022;2022-07-18T09:25:59;25.90;48.10
28837;DHT22;50669;50.982;11.022;2022-07-18T09:28:29;26.10;47.50
28837;DHT22;50669;50.982;11.022;2022-07-18T09:30:57;26.20;47.70
28837;DHT22;50669;50.982;11.022;2022-07-18T09:33:25;26.00;47.00
28837;DHT22;50669;50.982;11.022;2022-07-18T09:35:52;26.00;47.30
28837;DHT22;50669;50.982;11.022;2022-07-18T09:38:21;26.20;47.50
28837;DHT22;50669;50.982;11.022;2022-07-18T09:40:52;26.40;47.40
28837;DHT22;50669;50.982;11.022;2022-07-18T09:43:24;26.60;47.00
28837;DHT22;50669;50.982;11.022;2022-07-18T09:45:52;26.50;46.30
28837;DHT22;50669;50.982;11.022;2022-07-18T09:48:25;26.70;47.10
28837;DHT22;50669;50.982;11.022;2022-07-18T09:50:58;26.80;46.40
28837;DHT22;50669;50.982;11.022;2022-07-18T09:53:27;27.00;46.60
28837;DHT22;50669;50.982;11.022;2022-07-18T09:56:08;27.40;46.20
28837;DHT22;50669;50.982;11.022;2022-07-18T09:58:49;27.50;45.60
28837;DHT22;50669;50.982;11.022;2022-07-18T10:01:15;27.30;44.70
28837;DHT22;50669;50.982;11.022;2022-07-18T10:03:41;27.10;42.70
28837;DHT22;50669;50.982;11.022;2022-07-18T10:06:07;27.20;42.20
28837;DHT22;50669;50.982;11.022;2022-07-18T10:08:34;27.30;42.60
28837;DHT22;50669;50.982;11.022;2022-07-18T10:11:01;27.50;43.00
28837;DHT22;50669;50.982;11.022;2022-07-18T10:13:30;27.70;43.00
28837;DHT22;50669;50.982;11.022;2022-07-18T10:16:01;27.70;43.50
28837;DHT22;50669;50.982;11.022;2022-07-18T10:18:32;27.70;43.50
28837;DHT22;50669;50.982;11.022;2022-07-18T10:21:11;28.00;43.40
28837;DHT22;50669;50.982;11.022;2022-07-18T10:31:23;28.70;42.20
28837;DHT22;50669;50.982;11.022;2022-07-18T10:33:49;28.50;42.50
28837;DHT22;50669;50.982;11.022;2022-07-18T10:36:25;28.40;42.70
28837;DHT22;50669;50.982;11.022;2022-07-18T10:57:38;28.80;42.40
28837;DHT22;50669;50.982;11.022;2022-07-18T11:02:45;28.70;43.10
28837;DHT22;50669;50.982;11.022;2022-07-18T11:21:30;29.80;42.90
28837;DHT22;50669;50.982;11.022;2022-07-18T11:24:10;29.90;42.50
28837;DHT22;50669;50.982;11.022;2022-07-18T11:26:44;30.00;42.60
28837;DHT22;50669;50.982;11.022;2022-07-18T11:29:12;30.10;42.70
28837;DHT22;50669;50.982;11.022;2022-07-18T11:34:15;30.20;42.30
28837;DHT22;50669;50.982;11.022;2022-07-18T11:36:46;30.30;42.10
28837;DHT22;50669;50.982;11.022;2022-07-18T11:39:13;30.30;42.20
28837;DHT22;50669;50.982;11.022;2022-07-18T11:41:40;30.40;42.50
28837;DHT22;50669;50.982;11.022;2022-07-18T11:44:15;30.50;41.80
28837;DHT22;50669;50.982;11.022;2022-07-18T11:47:01;30.70;42.10
28837;DHT22;50669;50.982;11.022;2022-07-18T11:49:27;30.90;41.60
28837;DHT22;50669;50.982;11.022;2022-07-18T11:51:55;31.00;40.70
28837;DHT22;50669;50.982;11.022;2022-07-18T11:54:24;30.80;41.20
28837;DHT22;50669;50.982;11.022;2022-07-18T11:56:52;30.70;40.70
28837;DHT22;50669;50.982;11.022;2022-07-18T11:59:18;30.70;41.10
28837;DHT22;50669;50.982;11.022;2022-07-18T12:01:45;30.70;41.10
28837;DHT22;50669;50.982;11.022;2022-07-18T12:04:24;30.90;40.40
28837;DHT22;50669;50.982;11.022;2022-07-18T12:09:34;33.00;39.70
28837;DHT22;50669;50.982;11.022;2022-07-18T12:12:09;33.70;37.90
28837;DHT22;50669;50.982;11.022;2022-07-18T12:14:35;33.90;37.50
28837;DHT22;50669;50.982;11.022;2022-07-18T12:17:05;34.60;37.40
28837;DHT22;50669;50.982;11.022;2022-07-18T12:19:36;36.20;36.60
28837;DHT22;50669;50.982;11.022;2022-07-18T12:22:09;37.40;36.60
28837;DHT22;50669;50.982;11.022;2022-07-18T12:24:51;37.80;33.90
28837;DHT22;50669;50.982;11.022;2022-07-18T12:32:51;38.60;34.10
28837;DHT22;50669;50.982;11.022;2022-07-18T12:40:17;37.80;33.90
28837;DHT22;50669;50.982;11.022;2022-07-18T12:42:42;38.00;33.60
28837;DHT22;50669;50.982;11.022;2022-07-18T12:45:10;38.10;33.80
28837;DHT22;50669;50.982;11.022;2022-07-18T12:47:38;38.60;34.20
28837;DHT22;50669;50.982;11.022;2022-07-18T12:50:07;39.00;33.20
28837;DHT22;50669;50.982;11.022;2022-07-18T12:52:36;39.40;33.90
28837;DHT22;50669;50.982;11.022;2022-07-18T12:55:01;39.00;32.80
28837;DHT22;50669;50.982;11.022;2022-07-18T12:57:27;38.30;33.50
28837;DHT22;50669;50.982;11.022;2022-07-18T12:59:53;37.90;33.40
28837;DHT22;50669;50.982;11.022;2022-07-18T13:02:19;37.90;33.90
28837;DHT22;50669;50.982;11.022;2022-07-18T13:04:49;38.40;33.70
28837;DHT22;50669;50.982;11.022;2022-07-18T13:07:14;38.80;33.90
28837;DHT22;50669;50.982;11.022;2022-07-18T13:09:43;39.30;33.40
28837;DHT22;50669;50.982;11.022;2022-07-18T13:12:10;39.00;32.70
28837;DHT22;50669;50.982;11.022;2022-07-18T13:14:36;38.60;33.30
28837;DHT22;50669;50.982;11.022;2022-07-18T13:17:02;38.00;33.60
28837;DHT22;50669;50.982;11.022;2022-07-18T13:19:30;37.20;34.10
28837;DHT22;50669;50.982;11.022;2022-07-18T13:21:59;36.80;34.40
28837;DHT22;50669;50.982;11.022;2022-07-18T13:24:25;36.90;34.50
28837;DHT22;50669;50.982;11.022;2022-07-18T13:26:50;37.20;34.70
28837;DHT22;50669;50.982;11.022;2022-07-18T13:29:16;36.90;33.70
28837;DHT22;50669;50.982;11.022;2022-07-18T13:31:43;37.20;34.50
28837;DHT22;50669;50.982;11.022;2022-07-18T13:34:08;37.60;34.10
28837;DHT22;50669;50.982;11.022;2022-07-18T13:36:39;37.30;34.30
28837;DHT22;50669;50.982;11.022;2022-07-18T13:39:06;37.20;34.30
28837;DHT22;50669;50.982;11.022;2022-07-18T13:41:34;37.20;34.60
28837;DHT22;50669;50.982;11.022;2022-07-18T13:44:00;37.20;34.90
28837;DHT22;50669;50.982;11.022;2022-07-18T13:46:30;37.20;34.80
28837;DHT22;50669;50.982;11.022;2022-07-18T13:48:56;37.10;33.90
28837;DHT22;50669;50.982;11.022;2022-07-18T13:51:24;36.80;34.60
28837;DHT22;50669;50.982;11.022;2022-07-18T13:53:50;36.50;34.90
28837;DHT22;50669;50.982;11.022;2022-07-18T13:56:15;35.80;34.70
28837;DHT22;50669;50.982;11.022;2022-07-18T13:58:43;35.50;35.60
28837;DHT22;50669;50.982;11.022;2022-07-18T14:01:09;35.40;35.70
28837;DHT22;50669;50.982;11.022;2022-07-18T14:03:39;35.30;36.20
28837;DHT22;50669;50.982;11.022;2022-07-18T14:06:05;35.10;36.00
28837;DHT22;50669;50.982;11.022;2022-07-18T14:08:30;35.10;36.30
28837;DHT22;50669;50.982;11.022;2022-07-18T14:10:56;35.20;36.50
28837;DHT22;50669;50.982;11.022;2022-07-18T14:13:22;35.00;36.00
28837;DHT22;50669;50.982;11.022;2022-07-18T14:15:48;35.10;36.40
28837;DHT22;50669;50.982;11.022;2022-07-18T14:18:13;35.10;36.50
28837;DHT22;50669;50.982;11.022;2022-07-18T14:20:39;35.20;36.40
28837;DHT22;50669;50.982;11.022;2022-07-18T14:23:08;35.30;35.90
28837;DHT22;50669;50.982;11.022;2022-07-18T14:25:34;35.70;35.80
28837;DHT22;50669;50.982;11.022;2022-07-18T14:28:02;36.00;36.00
28837;DHT22;50669;50.982;11.022;2022-07-18T14:30:27;36.30;35.50
28837;DHT22;50669;50.982;11.022;2022-07-18T14:32:53;36.50;35.40
28837;DHT22;50669;50.982;11.022;2022-07-18T14:35:21;36.70;35.80
28837;DHT22;50669;50.982;11.022;2022-07-18T14:37:47;36.50;34.70
28837;DHT22;50669;50.982;11.022;2022-07-18T14:40:12;36.60;34.80
28837;DHT22;50669;50.982;11.022;2022-07-18T14:42:38;36.80;35.00
28837;DHT22;50669;50.982;11.022;2022-07-18T14:45:05;37.30;34.30
28837;DHT22;50669;50.982;11.022;2022-07-18T14:47:31;37.30;33.50
28837;DHT22;50669;50.982;11.022;2022-07-18T14:50:01;37.40;34.40
28837;DHT22;50669;50.982;11.022;2022-07-18T14:52:26;37.60;34.50
28837;DHT22;50669;50.982;11.022;2022-07-18T14:54:54;37.90;34.40
28837;DHT22;50669;50.982;11.022;2022-07-18T14:57:20;37.80;33.80
28837;DHT22;50669;50.982;11.022;2022-07-18T14:59:45;37.50;33.80
28837;DHT22;50669;50.982;11.022;2022-07-18T15:02:11;37.70;34.40
28837;DHT22;50669;50.982;11.022;2022-07-18T15:04:39;37.20;33.40
28837;DHT22;50669;50.982;11.022;2022-07-18T15:07:04;37.30;34.30
28837;DHT22;50669;50.982;11.022;2022-07-18T15:09:30;37.50;33.60
28837;DHT22;50669;50.982;11.022;2022-07-18T15:11:56;37.30;33.90
28837;DHT22;50669;50.982;11.022;2022-07-18T15:14:22;36.90;34.30
28837;DHT22;50669;50.982;11.022;2022-07-18T15:16:47;36.30;34.80
28837;DHT22;50669;50.982;11.022;2022-07-18T15:19:13;35.80;35.30
28837;DHT22;50669;50.982;11.022;2022-07-18T15:21:41;35.50;35.60
28837;DHT22;50669;50.982;11.022;2022-07-18T15:24:07;35.50;36.00
28837;DHT22;50669;50.982;11.022;2022-07-18T15:26:33;35.40;35.90
28837;DHT22;50669;50.982;11.022;2022-07-18T15:28:59;35.30;35.90
28837;DHT22;50669;50.982;11.022;2022-07-18T15:31:27;35.00;36.10
28837;DHT22;50669;50.982;11.022;2022-07-18T15:33:56;34.80;36.30
28837;DHT22;50669;50.982;11.022;2022-07-18T15:36:21;34.70;36.60
28837;DHT22;50669;50.982;11.022;2022-07-18T15:38:47;34.60;36.50
28837;DHT22;50669;50.982;11.022;2022-07-18T15:41:13;34.50;36.80
28837;DHT22;50669;50.982;11.022;2022-07-18T15:43:40;34.30;36.70
28837;DHT22;50669;50.982;11.022;2022-07-18T15:46:08;34.10;36.90
28837;DHT22;50669;50.982;11.022;2022-07-18T15:48:34;34.10;37.10
28837;DHT22;50669;50.982;11.022;2022-07-18T15:51:02;34.00;37.00
28837;DHT22;50669;50.982;11.022;2022-07-18T15:53:27;34.00;37.40
28837;DHT22;50669;50.982;11.022;2022-07-18T15:55:58;33.80;37.90
28837;DHT22;50669;50.982;11.022;2022-07-18T15:58:23;33.80;37.90
28837;DHT22;50669;50.982;11.022;2022-07-18T16:00:50;33.70;38.00
28837;DHT22;50669;50.982;11.022;2022-07-18T16:03:16;33.60;37.80
28837;DHT22;50669;50.982;11.022;2022-07-18T16:05:42;33.40;38.30
28837;DHT22;50669;50.982;11.022;2022-07-18T16:08:07;33.10;38.30
28837;DHT22;50669;50.982;11.022;2022-07-18T16:10:33;33.00;38.90
28837;DHT22;50669;50.982;11.022;2022-07-18T16:13:02;32.90;38.90
28837;DHT22;50669;50.982;11.022;2022-07-18T16:15:29;32.80;38.90
28837;DHT22;50669;50.982;11.022;2022-07-18T16:17:54;32.70;39.20